Weather at Eskilstuna Airport

Public forecast

Using degrees Celsius for public forecast. Weather courtesy of forecast.io.

Closest aviation weather report (METAR) to Eskilstuna Airport

Closest report is Stockholm Västerås Airport, 14.5 nm (26.8 km) N.

2024/05/28 04:20 (retrieved 28 minutes ago)

ESOW 280420Z AUTO 34003KT 9999 BKN096/// 15/12 Q1016

Closest aviation forecast (TAF) to Eskilstuna Airport

Forecast is more than 12 hours old.

Closest forecast is Gilze Rijen Air Base, 613.9 nm (1,137.0 km) SW.

2024/05/27 09:06 (retrieved 20 hours ago)

TAF TAF EHGR 270851Z 2709/2721 24008KT 9999 FEW024 TEMPO 2712/2719 FEW016 SCT024CB